createdAt,value
2023-04-16T00:00:37.301Z,13.13
2023-04-16T00:03:08.897Z,13.03
2023-04-16T00:05:40.987Z,14.13
2023-04-16T00:08:09.668Z,14.40
2023-04-16T00:10:38.664Z,13.23
2023-04-16T00:13:08.894Z,12.73
2023-04-16T00:15:37.614Z,12.93
2023-04-16T00:18:06.327Z,12.77
2023-04-16T00:20:37.548Z,13.47
2023-04-16T00:23:06.383Z,13.03
2023-04-16T00:25:35.092Z,13.63
2023-04-16T00:28:06.233Z,13.60
2023-04-16T00:30:38.040Z,14.30
2023-04-16T00:33:06.774Z,13.83
2023-04-16T00:35:35.639Z,15.30
2023-04-16T00:38:06.862Z,14.43
2023-04-16T00:40:35.834Z,14.60
2023-04-16T00:43:04.660Z,15.03
2023-04-16T00:45:33.433Z,14.10
2023-04-16T00:48:04.281Z,14.60
2023-04-16T00:50:33.425Z,14.87
2023-04-16T00:53:04.089Z,13.53
2023-04-16T00:55:32.807Z,14.97
2023-04-16T00:58:01.474Z,14.87
2023-04-16T01:00:30.147Z,14.40
2023-04-16T01:03:00.213Z,15.37
2023-04-16T01:05:31.262Z,15.77
2023-04-16T01:08:01.274Z,14.47
2023-04-16T01:10:30.012Z,15.27
2023-04-16T01:12:58.698Z,15.47
2023-04-16T01:15:29.695Z,15.53
2023-04-16T01:17:58.501Z,15.40
2023-04-16T01:20:27.311Z,16.43
2023-04-16T01:23:07.911Z,15.40
2023-04-16T01:25:36.557Z,14.67
2023-04-16T01:28:05.518Z,14.47
2023-04-16T01:30:34.183Z,14.67
2023-04-16T01:33:05.885Z,16.77
2023-04-16T01:35:43.426Z,15.17
2023-04-16T01:38:16.834Z,14.87
2023-04-16T01:40:45.490Z,17.77
2023-04-16T01:43:14.298Z,15.17
2023-04-16T01:45:44.417Z,15.00
2023-04-16T01:48:13.304Z,15.90
2023-04-16T01:50:42.512Z,14.90
2023-04-16T01:53:11.169Z,15.00
2023-04-16T01:55:41.301Z,16.50
2023-04-16T01:58:11.151Z,16.00
2023-04-16T02:00:40.536Z,15.17
2023-04-16T02:03:09.419Z,17.43
2023-04-16T02:05:39.454Z,16.40
2023-04-16T02:08:08.084Z,17.70
2023-04-16T02:10:39.716Z,16.37
2023-04-16T02:13:09.916Z,16.43
2023-04-16T02:15:38.590Z,18.40
2023-04-16T02:18:07.288Z,17.17
2023-04-16T02:20:36.434Z,17.07
2023-04-16T02:23:05.064Z,17.37
2023-04-16T02:25:34.107Z,17.10
2023-04-16T02:28:02.787Z,17.97
2023-04-16T02:30:34.972Z,17.37
2023-04-16T02:33:07.409Z,17.73
2023-04-16T02:35:36.531Z,17.93
2023-04-16T02:38:06.273Z,17.80
2023-04-16T02:40:36.776Z,18.33
2023-04-16T02:43:05.421Z,18.77
2023-04-16T02:45:35.495Z,17.97
2023-04-16T02:48:04.221Z,18.27
2023-04-16T02:50:33.911Z,17.30
2023-04-16T02:53:04.409Z,18.27
2023-04-16T02:55:32.999Z,16.53
2023-04-16T02:58:01.955Z,18.23
2023-04-16T03:00:30.863Z,18.20
2023-04-16T03:03:00.994Z,18.07
2023-04-16T03:05:29.610Z,18.17
2023-04-16T03:07:58.315Z,18.00
2023-04-16T03:10:26.991Z,18.53
2023-04-16T03:12:55.663Z,19.50
2023-04-16T03:15:25.349Z,19.40
2023-04-16T03:17:54.137Z,21.13
2023-04-16T03:20:24.185Z,18.17
2023-04-16T03:22:57.291Z,20.17
2023-04-16T03:25:25.940Z,18.93
2023-04-16T03:27:54.598Z,21.80
2023-04-16T03:30:23.284Z,18.43
2023-04-16T03:32:52.194Z,20.60
2023-04-16T03:35:21.165Z,17.30
2023-04-16T03:37:51.872Z,19.70
2023-04-16T03:40:20.831Z,19.50
2023-04-16T03:42:49.485Z,19.40
2023-04-16T03:45:18.305Z,17.70
2023-04-16T03:47:48.852Z,19.03
2023-04-16T03:50:17.693Z,19.30
2023-04-16T03:52:47.055Z,18.83
2023-04-16T03:55:17.472Z,19.13
2023-04-16T03:57:46.202Z,20.70
2023-04-16T04:00:15.495Z,21.83
2023-04-16T04:02:48.186Z,20.33
2023-04-16T04:05:17.989Z,19.57
2023-04-16T04:07:48.333Z,20.93
2023-04-16T04:10:20.205Z,17.37
2023-04-16T04:12:54.086Z,21.60
2023-04-16T04:15:26.398Z,17.77
2023-04-16T04:18:06.177Z,21.30
2023-04-16T04:20:43.288Z,18.93
2023-04-16T04:23:19.343Z,20.67
2023-04-16T04:25:50.986Z,22.67
2023-04-16T04:28:22.746Z,18.57
2023-04-16T04:30:51.372Z,21.17
2023-04-16T04:33:20.527Z,20.20
2023-04-16T04:35:49.222Z,20.47
2023-04-16T04:38:19.887Z,18.90
2023-04-16T04:40:52.857Z,17.67
2023-04-16T04:43:21.902Z,21.13
2023-04-16T04:45:51.012Z,17.50
2023-04-16T04:48:21.693Z,20.27
2023-04-16T04:50:50.617Z,19.37
2023-04-16T04:53:24.026Z,19.13
2023-04-16T04:55:57.574Z,19.03
2023-04-16T04:58:34.121Z,18.50
2023-04-16T05:01:06.091Z,17.70
2023-04-16T05:03:34.978Z,19.20
2023-04-16T05:06:03.645Z,19.00
2023-04-16T05:08:32.260Z,18.33
2023-04-16T05:11:02.306Z,19.30
2023-04-16T05:13:30.862Z,18.30
2023-04-16T05:16:00.772Z,18.03
2023-04-16T05:18:29.474Z,18.20
2023-04-16T05:21:00.452Z,19.70
2023-04-16T05:23:36.864Z,18.10
2023-04-16T05:26:15.545Z,19.43
2023-04-16T05:28:44.314Z,19.57
2023-04-16T05:31:13.109Z,18.37
2023-04-16T05:33:41.809Z,20.50
2023-04-16T05:36:10.626Z,20.17
2023-04-16T05:38:42.079Z,21.70
2023-04-16T05:41:12.211Z,18.47
2023-04-16T05:43:43.668Z,21.80
2023-04-16T05:46:15.422Z,19.80
2023-04-16T05:48:44.195Z,19.67
2023-04-16T05:51:16.392Z,20.73
2023-04-16T05:53:47.325Z,20.43
2023-04-16T05:56:22.024Z,18.20
2023-04-16T05:58:51.484Z,18.90
2023-04-16T06:01:25.696Z,18.50
2023-04-16T06:04:00.310Z,19.17
2023-04-16T06:06:37.684Z,20.80
2023-04-16T06:09:14.041Z,18.30
2023-04-16T06:11:44.329Z,21.50
2023-04-16T06:14:13.165Z,19.60
2023-04-16T06:16:42.057Z,20.07
2023-04-16T06:19:11.054Z,18.93
2023-04-16T06:21:40.103Z,20.40
2023-04-16T06:24:09.224Z,19.13
2023-04-16T06:26:38.081Z,20.60
2023-04-16T06:29:08.501Z,21.03
2023-04-16T06:31:40.260Z,21.73
2023-04-16T06:34:10.435Z,21.03
2023-04-16T06:36:39.021Z,20.47
2023-04-16T06:39:10.082Z,21.60
2023-04-16T06:41:38.853Z,21.10
2023-04-16T06:44:09.079Z,21.57
2023-04-16T06:46:39.473Z,19.07
2023-04-16T06:49:08.610Z,19.17
2023-04-16T06:51:39.797Z,19.63
2023-04-16T06:54:08.429Z,19.40
2023-04-16T06:56:39.952Z,19.83
2023-04-16T06:59:13.203Z,19.87
2023-04-16T07:01:42.678Z,19.73
2023-04-16T07:04:13.258Z,18.57
2023-04-16T07:06:44.456Z,19.97
2023-04-16T07:09:21.538Z,22.03
2023-04-16T07:11:50.350Z,20.50
2023-04-16T07:14:20.740Z,18.00
2023-04-16T07:16:49.596Z,22.73
2023-04-16T07:19:20.161Z,21.80
2023-04-16T07:21:48.956Z,20.23
2023-04-16T07:24:20.029Z,20.30
2023-04-16T07:26:52.358Z,19.37
2023-04-16T07:29:25.086Z,23.57
2023-04-16T07:31:54.004Z,22.43
2023-04-16T07:34:23.311Z,20.37
2023-04-16T07:37:01.788Z,20.67
2023-04-16T07:39:31.758Z,19.23
2023-04-16T07:42:03.628Z,19.90
2023-04-16T07:44:36.823Z,19.80
2023-04-16T07:47:05.951Z,21.83
2023-04-16T07:49:35.916Z,21.10
2023-04-16T07:52:04.683Z,21.80
2023-04-16T07:54:33.538Z,23.13
2023-04-16T07:57:07.255Z,21.00
2023-04-16T07:59:42.396Z,22.97
2023-04-16T08:02:20.725Z,21.60
2023-04-16T08:04:49.728Z,23.17
2023-04-16T08:07:22.212Z,21.83
2023-04-16T08:09:52.678Z,24.17
2023-04-16T08:12:22.255Z,21.80
2023-04-16T08:14:58.745Z,22.27
2023-04-16T08:17:28.589Z,22.50
2023-04-16T08:19:57.421Z,21.83
2023-04-16T08:22:26.420Z,23.23
2023-04-16T08:24:58.421Z,23.07
2023-04-16T08:27:27.146Z,23.70
2023-04-16T08:29:57.215Z,22.83
2023-04-16T08:32:26.000Z,22.73
2023-04-16T08:34:54.672Z,24.33
2023-04-16T08:37:23.279Z,24.37
2023-04-16T08:39:51.916Z,22.60
2023-04-16T08:42:24.904Z,23.70
2023-04-16T08:45:03.093Z,22.60
2023-04-16T08:47:35.576Z,23.60
2023-04-16T08:50:06.105Z,22.87
2023-04-16T08:52:38.967Z,21.93
2023-04-16T08:55:13.557Z,22.47
2023-04-16T08:57:48.982Z,24.33
2023-04-16T09:00:19.973Z,21.47
2023-04-16T09:02:50.318Z,21.87
2023-04-16T09:05:21.465Z,23.70
2023-04-16T09:07:50.311Z,23.13
2023-04-16T09:10:19.247Z,22.87
2023-04-16T09:12:47.899Z,22.97
2023-04-16T09:15:16.475Z,22.23
2023-04-16T09:17:46.636Z,23.83
2023-04-16T09:20:16.650Z,22.67
2023-04-16T09:22:45.709Z,24.73
2023-04-16T09:25:14.718Z,22.73
2023-04-16T09:27:43.743Z,23.17
2023-04-16T09:30:23.177Z,23.37
2023-04-16T09:32:54.478Z,23.50
2023-04-16T09:35:23.175Z,23.23
2023-04-16T09:37:58.702Z,23.37
2023-04-16T09:40:30.591Z,25.83
2023-04-16T09:43:00.934Z,22.97
2023-04-16T09:45:33.966Z,23.50
2023-04-16T09:48:07.813Z,24.53
2023-04-16T09:50:36.495Z,24.70
2023-04-16T09:53:06.288Z,24.10
2023-04-16T09:55:35.265Z,23.57
2023-04-16T09:58:03.881Z,23.03
2023-04-16T10:00:34.615Z,22.67
2023-04-16T10:03:08.197Z,22.60
2023-04-16T10:05:37.002Z,23.20
2023-04-16T10:08:13.305Z,24.70
2023-04-16T10:10:42.355Z,24.70
2023-04-16T10:13:12.756Z,22.93
2023-04-16T10:15:41.840Z,23.13
2023-04-16T10:18:12.136Z,22.27
2023-04-16T10:20:41.008Z,22.30
2023-04-16T10:23:09.826Z,21.13
2023-04-16T10:25:39.965Z,23.83
2023-04-16T10:28:10.436Z,23.20
2023-04-16T10:30:39.626Z,22.23
2023-04-16T10:33:09.465Z,22.27
2023-04-16T10:35:42.153Z,21.97
2023-04-16T10:38:24.424Z,21.87
2023-04-16T10:41:00.220Z,23.07
2023-04-16T10:43:30.140Z,24.47
2023-04-16T10:45:59.112Z,21.37
2023-04-16T10:48:35.568Z,24.07
2023-04-16T10:51:26.025Z,21.50
2023-04-16T10:53:55.872Z,22.23
2023-04-16T10:56:28.116Z,24.33
2023-04-16T10:58:59.373Z,24.10
2023-04-16T11:01:35.445Z,23.83
2023-04-16T11:04:28.224Z,23.30
2023-04-16T11:07:16.425Z,22.43
2023-04-16T11:10:05.098Z,23.47
2023-04-16T11:12:37.726Z,23.27
2023-04-16T11:15:08.616Z,21.50
2023-04-16T11:17:40.196Z,22.27
2023-04-16T11:20:19.542Z,23.50
2023-04-16T11:22:50.967Z,25.03
2023-04-16T11:25:23.038Z,23.33
2023-04-16T11:27:52.117Z,24.07
2023-04-16T11:30:30.404Z,23.40
2023-04-16T11:32:59.311Z,24.93
2023-04-16T11:35:28.006Z,24.50
2023-04-16T11:37:59.313Z,23.87
2023-04-16T11:40:31.718Z,22.90
2023-04-16T11:43:04.160Z,22.20
2023-04-16T11:45:32.851Z,23.47
2023-04-16T11:48:01.618Z,23.80
2023-04-16T11:50:30.483Z,23.57
2023-04-16T11:53:06.310Z,24.60
2023-04-16T11:55:44.727Z,23.90
2023-04-16T11:58:15.951Z,24.13
2023-04-16T12:00:45.785Z,23.90
2023-04-16T12:03:14.658Z,24.43
2023-04-16T12:05:43.445Z,22.70
2023-04-16T12:08:29.354Z,23.97
2023-04-16T12:10:59.651Z,22.90
2023-04-16T12:13:28.467Z,25.80
2023-04-16T12:15:57.991Z,22.83
2023-04-16T12:18:27.451Z,23.20
2023-04-16T12:20:56.159Z,24.07
2023-04-16T12:23:27.752Z,23.57
2023-04-16T12:25:59.648Z,24.10
2023-04-16T12:28:30.147Z,23.97
2023-04-16T12:30:58.926Z,21.60
2023-04-16T12:33:27.557Z,23.23
2023-04-16T12:35:56.235Z,24.10
2023-04-16T12:38:26.612Z,24.13
2023-04-16T12:40:57.151Z,23.43
2023-04-16T12:43:26.419Z,25.10
2023-04-16T12:45:55.358Z,21.33
2023-04-16T12:48:24.031Z,22.83
2023-04-16T12:50:55.303Z,21.10
2023-04-16T12:53:24.011Z,24.97
2023-04-16T12:55:54.025Z,21.93
2023-04-16T12:58:22.662Z,23.10
2023-04-16T13:00:51.314Z,21.70
2023-04-16T13:03:21.071Z,22.47
2023-04-16T13:05:50.109Z,21.57
2023-04-16T13:08:18.754Z,21.37
2023-04-16T13:10:47.400Z,22.97
2023-04-16T13:13:17.509Z,21.87
2023-04-16T13:15:46.155Z,22.57
2023-04-16T13:18:14.886Z,22.73
2023-04-16T13:20:43.886Z,21.57
2023-04-16T13:23:12.547Z,21.93
2023-04-16T13:25:41.116Z,22.13
2023-04-16T13:28:09.721Z,22.37
2023-04-16T13:30:39.883Z,21.83
2023-04-16T13:33:09.165Z,22.83
2023-04-16T13:35:37.861Z,24.13
2023-04-16T13:38:06.615Z,21.17
2023-04-16T13:40:35.307Z,21.10
2023-04-16T13:43:05.024Z,22.27
2023-04-16T13:45:35.245Z,23.10
2023-04-16T13:48:05.653Z,22.93
2023-04-16T13:50:35.200Z,23.10
2023-04-16T13:53:03.845Z,22.57
2023-04-16T13:55:32.882Z,21.60
2023-04-16T13:58:01.796Z,21.43
2023-04-16T14:00:30.401Z,22.70
2023-04-16T14:02:59.200Z,22.07
2023-04-16T14:05:29.232Z,22.17
2023-04-16T14:07:57.831Z,20.33
2023-04-16T14:10:26.441Z,22.40
2023-04-16T14:12:55.169Z,21.93
2023-04-16T14:15:26.410Z,22.93
2023-04-16T14:17:55.073Z,21.77
2023-04-16T14:20:23.853Z,23.23
2023-04-16T14:22:53.896Z,20.47
2023-04-16T14:25:22.507Z,21.23
2023-04-16T14:27:51.409Z,19.10
2023-04-16T14:30:20.261Z,21.47
2023-04-16T14:32:49.033Z,18.43
2023-04-16T14:35:18.007Z,20.63
2023-04-16T14:37:46.886Z,20.37
2023-04-16T14:40:17.030Z,21.80
2023-04-16T14:42:45.621Z,21.37
2023-04-16T14:45:14.434Z,20.50
2023-04-16T14:47:47.036Z,19.97
2023-04-16T14:50:16.150Z,21.00
2023-04-16T14:52:44.871Z,21.57
2023-04-16T14:55:13.552Z,21.80
2023-04-16T14:57:43.518Z,20.97
2023-04-16T15:00:13.609Z,21.27
2023-04-16T15:02:42.476Z,19.20
2023-04-16T15:05:11.534Z,22.57
2023-04-16T15:07:40.454Z,20.30
2023-04-16T15:10:10.806Z,20.57
2023-04-16T15:12:39.466Z,20.23
2023-04-16T15:15:11.144Z,21.07
2023-04-16T15:17:39.850Z,18.83
2023-04-16T15:20:10.678Z,21.70
2023-04-16T15:22:39.453Z,20.47
2023-04-16T15:25:08.846Z,20.40
2023-04-16T15:27:37.624Z,21.60
2023-04-16T15:30:07.230Z,22.73
2023-04-16T15:32:37.364Z,21.77
2023-04-16T15:35:06.531Z,20.23
2023-04-16T15:37:35.167Z,20.27
2023-04-16T15:40:05.580Z,20.40
2023-04-16T15:42:34.327Z,20.47
2023-04-16T15:45:03.047Z,20.43
2023-04-16T15:47:31.705Z,21.73
2023-04-16T15:50:01.691Z,19.80
2023-04-16T15:52:30.721Z,22.47
2023-04-16T15:55:00.735Z,21.43
2023-04-16T15:57:30.674Z,20.37
2023-04-16T16:00:06.866Z,21.37
2023-04-16T16:02:36.500Z,22.60
2023-04-16T16:05:07.560Z,20.80
2023-04-16T16:07:36.348Z,20.00
2023-04-16T16:10:06.049Z,20.00
2023-04-16T16:12:34.779Z,20.87
2023-04-16T16:15:03.469Z,21.53
2023-04-16T16:17:32.118Z,19.97
2023-04-16T16:20:01.212Z,19.97
2023-04-16T16:22:31.234Z,20.70
2023-04-16T16:25:00.423Z,22.80
2023-04-16T16:27:28.967Z,21.47
2023-04-16T16:29:57.696Z,19.83
2023-04-16T16:32:26.375Z,22.17
2023-04-16T16:34:55.144Z,22.47
2023-04-16T16:37:23.723Z,23.60
2023-04-16T16:39:53.818Z,20.90
2023-04-16T16:42:22.454Z,21.03
2023-04-16T16:44:51.154Z,21.13
2023-04-16T16:47:19.939Z,21.90
2023-04-16T16:49:49.076Z,21.10
2023-04-16T16:52:17.959Z,22.13
2023-04-16T16:54:46.613Z,19.20
2023-04-16T16:57:16.735Z,23.87
2023-04-16T16:59:45.552Z,21.40
2023-04-16T17:02:16.337Z,19.10
2023-04-16T17:04:45.679Z,21.83
2023-04-16T17:07:14.626Z,19.30
2023-04-16T17:09:43.265Z,19.33
2023-04-16T17:12:11.943Z,19.47
2023-04-16T17:14:41.975Z,20.90
2023-04-16T17:17:10.691Z,21.30
2023-04-16T17:19:39.356Z,22.90
2023-04-16T17:22:08.582Z,20.53
2023-04-16T17:24:37.243Z,20.40
2023-04-16T17:27:05.913Z,21.33
2023-04-16T17:29:34.545Z,21.13
2023-04-16T17:32:04.811Z,19.93
2023-04-16T17:34:33.454Z,21.27
2023-04-16T17:37:02.202Z,21.27
2023-04-16T17:39:31.175Z,21.50
2023-04-16T17:42:02.989Z,21.53
2023-04-16T17:44:31.650Z,24.13
2023-04-16T17:47:00.443Z,20.40
2023-04-16T17:49:30.512Z,20.47
2023-04-16T17:51:59.108Z,20.57
2023-04-16T17:54:27.769Z,20.20
2023-04-16T17:56:57.536Z,23.07
2023-04-16T17:59:26.313Z,19.57
2023-04-16T18:01:55.152Z,19.43
2023-04-16T18:04:24.013Z,21.17
2023-04-16T18:06:54.081Z,20.90
2023-04-16T18:09:22.857Z,23.37
2023-04-16T18:11:51.541Z,19.70
2023-04-16T18:14:21.528Z,21.57
2023-04-16T18:16:50.474Z,20.33
2023-04-16T18:19:19.092Z,22.33
2023-04-16T18:21:47.944Z,19.40
2023-04-16T18:24:17.965Z,20.97
2023-04-16T18:26:47.199Z,21.40
2023-04-16T18:29:17.834Z,21.33
2023-04-16T18:31:47.449Z,21.13
2023-04-16T18:34:16.310Z,20.40
2023-04-16T18:36:44.961Z,19.77
2023-04-16T18:39:13.592Z,20.27
2023-04-16T18:41:43.768Z,19.73
2023-04-16T18:44:12.659Z,21.87
2023-04-16T18:46:41.309Z,20.47
2023-04-16T18:49:10.325Z,20.53
2023-04-16T18:51:39.314Z,22.70
2023-04-16T18:54:09.811Z,22.73
2023-04-16T18:56:38.430Z,21.53
2023-04-16T18:59:08.643Z,19.77
2023-04-16T19:01:37.366Z,21.67
2023-04-16T19:04:07.494Z,21.63
2023-04-16T19:06:36.345Z,23.03
2023-04-16T19:09:05.052Z,22.20
2023-04-16T19:11:38.059Z,22.50
2023-04-16T19:14:14.594Z,22.20
2023-04-16T19:16:54.596Z,25.97
2023-04-16T19:19:30.594Z,22.80
2023-04-16T19:22:12.808Z,23.30
2023-04-16T19:24:58.420Z,21.30
2023-04-16T19:27:33.530Z,21.20
2023-04-16T19:30:07.073Z,23.57
2023-04-16T19:32:46.901Z,24.03
2023-04-16T19:35:27.026Z,22.23
2023-04-16T19:38:01.599Z,23.40
2023-04-16T19:40:33.629Z,22.07
2023-04-16T19:43:07.004Z,22.10
2023-04-16T19:45:50.554Z,22.70
2023-04-16T19:48:30.504Z,22.03
2023-04-16T19:51:05.563Z,23.30
2023-04-16T19:53:37.370Z,21.33
2023-04-16T19:56:16.184Z,20.50
2023-04-16T19:58:47.985Z,23.57
2023-04-16T20:01:27.766Z,21.53
2023-04-16T20:03:57.651Z,23.27
2023-04-16T20:06:40.146Z,20.17
2023-04-16T20:09:32.020Z,22.13
2023-04-16T20:12:08.821Z,22.07
2023-04-16T20:15:07.791Z,22.07
2023-04-16T20:17:41.171Z,23.23
2023-04-16T20:20:11.336Z,23.73
2023-04-16T20:22:40.953Z,22.47
2023-04-16T20:25:10.731Z,22.13
2023-04-16T20:27:45.439Z,22.43
2023-04-16T20:30:15.250Z,24.20
2023-04-16T20:32:48.932Z,20.13
2023-04-16T20:35:20.219Z,21.27
2023-04-16T20:37:51.278Z,23.00
2023-04-16T20:40:24.096Z,22.30
2023-04-16T20:42:53.280Z,20.33
2023-04-16T20:45:22.116Z,23.03
2023-04-16T20:47:52.309Z,21.13
2023-04-16T20:50:21.148Z,21.80
2023-04-16T20:52:50.183Z,21.20
2023-04-16T20:55:21.666Z,22.97
2023-04-16T20:57:59.652Z,21.27
2023-04-16T21:00:30.521Z,20.67
2023-04-16T21:03:01.037Z,19.83
2023-04-16T21:05:34.098Z,22.80
2023-04-16T21:08:04.469Z,23.40
2023-04-16T21:10:33.270Z,22.97
2023-04-16T21:13:02.473Z,20.37
2023-04-16T21:15:32.899Z,20.13
2023-04-16T21:18:03.475Z,21.50
2023-04-16T21:20:36.947Z,23.80
2023-04-16T21:23:09.202Z,21.03
2023-04-16T21:25:40.002Z,22.97
2023-04-16T21:28:08.651Z,26.77
2023-04-16T21:30:38.324Z,20.93
2023-04-16T21:33:16.146Z,23.23
2023-04-16T21:35:56.133Z,22.63
2023-04-16T21:38:30.691Z,23.97
2023-04-16T21:41:13.513Z,23.10
2023-04-16T21:43:44.513Z,23.30
2023-04-16T21:46:15.542Z,21.50
2023-04-16T21:48:54.522Z,22.93
2023-04-16T21:51:34.761Z,21.37
2023-04-16T21:54:23.683Z,22.63
2023-04-16T21:59:43.222Z,20.17
2023-04-16T22:02:32.708Z,21.77
2023-04-16T22:05:05.800Z,22.60
2023-04-16T22:07:48.414Z,23.10
2023-04-16T22:10:30.573Z,24.97
2023-04-16T22:13:14.543Z,21.70
2023-04-16T22:16:10.135Z,23.10
2023-04-16T22:18:50.563Z,28.10
2023-04-16T22:21:24.703Z,23.00
2023-04-16T22:24:04.222Z,23.33
2023-04-16T22:26:39.596Z,23.30
2023-04-16T22:29:28.647Z,22.83
2023-04-16T22:32:05.002Z,19.93
2023-04-16T22:34:45.073Z,21.47
2023-04-16T22:37:32.857Z,19.53
2023-04-16T22:40:21.837Z,21.73
2023-04-16T22:43:01.950Z,21.17
2023-04-16T22:45:38.903Z,23.03
2023-04-16T22:48:16.485Z,21.87
2023-04-16T22:50:54.194Z,21.53
2023-04-16T22:53:34.543Z,22.47
2023-04-16T22:56:05.454Z,21.63
2023-04-16T22:58:38.527Z,22.83
2023-04-16T23:01:10.480Z,21.53
2023-04-16T23:03:39.171Z,21.60
2023-04-16T23:06:08.319Z,22.73
2023-04-16T23:08:38.552Z,22.80
2023-04-16T23:11:09.849Z,21.00
2023-04-16T23:13:38.560Z,21.80
2023-04-16T23:16:08.313Z,21.20
2023-04-16T23:18:37.877Z,22.53
2023-04-16T23:21:06.880Z,21.37
2023-04-16T23:23:37.823Z,22.60
2023-04-16T23:26:18.698Z,21.03
2023-04-16T23:28:48.019Z,21.03
2023-04-16T23:31:16.856Z,21.53
2023-04-16T23:33:45.555Z,22.53
2023-04-16T23:36:19.279Z,21.17
2023-04-16T23:38:48.882Z,21.93
2023-04-16T23:41:29.782Z,21.47
2023-04-16T23:44:04.429Z,21.37
2023-04-16T23:46:35.775Z,19.47
2023-04-16T23:49:10.004Z,20.57
2023-04-16T23:51:42.062Z,21.00
2023-04-16T23:54:19.705Z,19.73
2023-04-16T23:56:50.000Z,20.17
2023-04-16T23:59:18.927Z,20.90
